Terminal Aerodrome Forecast
Issued by NWS

Home | Current Version | Previous Version | Text Only | Print | Product List | Glossary On
Versions: 1 2 3 4 5 6 7 8 9 10 11 12 13 14 15 16
000
FTUS42 KTBW 291133
TAFLAL
TAF
KLAL 291133Z 2912/3012 06004KT P6SM SKC
     FM291400 08009KT P6SM SCT030 SCT250
     FM291700 08010KT P6SM BKN045
     FM292000 08011G17KT P6SM BKN050
     FM300100 08007KT P6SM SCT250
     FM300500 05004KT P6SM SCT250=

USA.gov is the U.S. government's official web portal to all federal, state and local government web resources and services.